sensor_id;sensor_type;location;lat;lon;timestamp;temperature;humidity
57434;DHT22;43277;52.672;6.984;2022-09-27T00:01:56;10.80;99.90
57434;DHT22;43277;52.672;6.984;2022-09-27T00:04:22;10.80;99.90
57434;DHT22;43277;52.672;6.984;2022-09-27T00:06:47;10.80;99.90
57434;DHT22;43277;52.672;6.984;2022-09-27T00:09:13;10.80;99.90
57434;DHT22;43277;52.672;6.984;2022-09-27T00:11:40;10.80;99.90
57434;DHT22;43277;52.672;6.984;2022-09-27T00:14:12;10.80;99.90
57434;DHT22;43277;52.672;6.984;2022-09-27T00:16:39;10.80;99.90
57434;DHT22;43277;52.672;6.984;2022-09-27T00:19:13;10.80;99.90
57434;DHT22;43277;52.672;6.984;2022-09-27T00:21:40;10.80;99.90
57434;DHT22;43277;52.672;6.984;2022-09-27T00:24:05;10.80;99.90
57434;DHT22;43277;52.672;6.984;2022-09-27T00:26:31;10.70;99.90
57434;DHT22;43277;52.672;6.984;2022-09-27T00:28:57;10.70;99.90
57434;DHT22;43277;52.672;6.984;2022-09-27T00:31:26;10.70;99.90
57434;DHT22;43277;52.672;6.984;2022-09-27T00:33:54;10.70;99.90
57434;DHT22;43277;52.672;6.984;2022-09-27T00:36:21;10.70;99.90
57434;DHT22;43277;52.672;6.984;2022-09-27T00:38:47;10.70;99.90
57434;DHT22;43277;52.672;6.984;2022-09-27T00:41:27;10.60;99.90
57434;DHT22;43277;52.672;6.984;2022-09-27T00:43:58;10.60;99.90
57434;DHT22;43277;52.672;6.984;2022-09-27T00:46:39;10.50;99.90
57434;DHT22;43277;52.672;6.984;2022-09-27T00:49:09;10.50;99.90
57434;DHT22;43277;52.672;6.984;2022-09-27T00:51:37;10.50;99.90
57434;DHT22;43277;52.672;6.984;2022-09-27T00:54:04;10.50;99.90
57434;DHT22;43277;52.672;6.984;2022-09-27T00:56:32;10.50;99.90
57434;DHT22;43277;52.672;6.984;2022-09-27T00:59:05;10.50;99.90
57434;DHT22;43277;52.672;6.984;2022-09-27T01:01:33;10.40;99.90
57434;DHT22;43277;52.672;6.984;2022-09-27T01:04:05;10.40;99.90
57434;DHT22;43277;52.672;6.984;2022-09-27T01:06:32;10.40;99.90
57434;DHT22;43277;52.672;6.984;2022-09-27T01:08:57;10.30;99.90
57434;DHT22;43277;52.672;6.984;2022-09-27T01:11:44;10.40;99.90
57434;DHT22;43277;52.672;6.984;2022-09-27T01:16:47;10.20;99.90
57434;DHT22;43277;52.672;6.984;2022-09-27T01:22:15;10.10;99.90
57434;DHT22;43277;52.672;6.984;2022-09-27T01:25:25;10.10;99.90
57434;DHT22;43277;52.672;6.984;2022-09-27T01:28:08;10.10;99.90
57434;DHT22;43277;52.672;6.984;2022-09-27T01:31:06;10.10;99.90
57434;DHT22;43277;52.672;6.984;2022-09-27T01:33:47;10.10;99.90
57434;DHT22;43277;52.672;6.984;2022-09-27T01:47:10;9.90;99.90
57434;DHT22;43277;52.672;6.984;2022-09-27T01:49:41;9.90;99.90
57434;DHT22;43277;52.672;6.984;2022-09-27T01:52:12;9.90;99.90
57434;DHT22;43277;52.672;6.984;2022-09-27T01:54:43;9.90;99.90
57434;DHT22;43277;52.672;6.984;2022-09-27T01:57:10;9.90;99.90
57434;DHT22;43277;52.672;6.984;2022-09-27T01:59:45;9.90;99.90
57434;DHT22;43277;52.672;6.984;2022-09-27T02:02:14;9.90;99.90
57434;DHT22;43277;52.672;6.984;2022-09-27T02:04:42;9.90;99.90
57434;DHT22;43277;52.672;6.984;2022-09-27T02:07:17;9.90;99.90
57434;DHT22;43277;52.672;6.984;2022-09-27T02:09:49;9.90;99.90
57434;DHT22;43277;52.672;6.984;2022-09-27T02:12:21;10.00;99.90
57434;DHT22;43277;52.672;6.984;2022-09-27T02:15:04;9.90;99.90
57434;DHT22;43277;52.672;6.984;2022-09-27T02:17:55;9.90;99.90
57434;DHT22;43277;52.672;6.984;2022-09-27T02:22:51;9.90;99.90
57434;DHT22;43277;52.672;6.984;2022-09-27T02:25:25;9.90;99.90
57434;DHT22;43277;52.672;6.984;2022-09-27T02:30:41;9.90;99.90
57434;DHT22;43277;52.672;6.984;2022-09-27T02:33:06;9.80;99.90
57434;DHT22;43277;52.672;6.984;2022-09-27T02:35:33;9.90;99.90
57434;DHT22;43277;52.672;6.984;2022-09-27T02:38:00;9.90;99.90
57434;DHT22;43277;52.672;6.984;2022-09-27T02:40:30;9.90;99.90
57434;DHT22;43277;52.672;6.984;2022-09-27T02:42:58;9.90;99.90
57434;DHT22;43277;52.672;6.984;2022-09-27T02:51:42;9.80;99.90
57434;DHT22;43277;52.672;6.984;2022-09-27T02:54:39;9.80;99.90
57434;DHT22;43277;52.672;6.984;2022-09-27T02:57:35;9.80;99.90
57434;DHT22;43277;52.672;6.984;2022-09-27T03:00:15;9.80;99.90
57434;DHT22;43277;52.672;6.984;2022-09-27T03:03:02;9.80;99.90
57434;DHT22;43277;52.672;6.984;2022-09-27T03:05:36;9.80;99.90
57434;DHT22;43277;52.672;6.984;2022-09-27T03:08:03;9.80;99.90
57434;DHT22;43277;52.672;6.984;2022-09-27T03:10:29;9.80;99.90
57434;DHT22;43277;52.672;6.984;2022-09-27T03:12:55;9.80;99.90
57434;DHT22;43277;52.672;6.984;2022-09-27T03:15:23;9.80;99.90
57434;DHT22;43277;52.672;6.984;2022-09-27T03:17:48;9.80;99.90
57434;DHT22;43277;52.672;6.984;2022-09-27T03:20:14;9.80;99.90
57434;DHT22;43277;52.672;6.984;2022-09-27T03:22:40;9.80;99.90
57434;DHT22;43277;52.672;6.984;2022-09-27T03:25:07;9.80;99.90
57434;DHT22;43277;52.672;6.984;2022-09-27T03:27:33;9.80;99.90
57434;DHT22;43277;52.672;6.984;2022-09-27T03:29:58;9.80;99.90
57434;DHT22;43277;52.672;6.984;2022-09-27T03:32:25;9.70;99.90
57434;DHT22;43277;52.672;6.984;2022-09-27T03:34:51;9.80;99.90
57434;DHT22;43277;52.672;6.984;2022-09-27T03:37:20;9.70;99.90
57434;DHT22;43277;52.672;6.984;2022-09-27T03:39:45;9.70;99.90
57434;DHT22;43277;52.672;6.984;2022-09-27T03:42:11;9.60;99.90
57434;DHT22;43277;52.672;6.984;2022-09-27T03:44:37;9.60;99.90
57434;DHT22;43277;52.672;6.984;2022-09-27T03:47:02;9.60;99.90
57434;DHT22;43277;52.672;6.984;2022-09-27T03:49:28;9.60;99.90
57434;DHT22;43277;52.672;6.984;2022-09-27T03:51:53;9.50;99.90
57434;DHT22;43277;52.672;6.984;2022-09-27T03:54:19;9.50;99.90
57434;DHT22;43277;52.672;6.984;2022-09-27T03:56:45;9.50;99.90
57434;DHT22;43277;52.672;6.984;2022-09-27T03:59:10;9.50;99.90
57434;DHT22;43277;52.672;6.984;2022-09-27T04:01:36;9.50;99.90
57434;DHT22;43277;52.672;6.984;2022-09-27T04:04:03;9.40;99.90
57434;DHT22;43277;52.672;6.984;2022-09-27T04:06:29;9.40;99.90
57434;DHT22;43277;52.672;6.984;2022-09-27T04:08:55;9.40;99.90
57434;DHT22;43277;52.672;6.984;2022-09-27T04:11:20;9.40;99.90
57434;DHT22;43277;52.672;6.984;2022-09-27T04:13:48;9.40;99.90
57434;DHT22;43277;52.672;6.984;2022-09-27T04:16:14;9.30;99.90
57434;DHT22;43277;52.672;6.984;2022-09-27T04:18:41;9.20;99.90
57434;DHT22;43277;52.672;6.984;2022-09-27T04:21:06;9.20;99.90
57434;DHT22;43277;52.672;6.984;2022-09-27T04:23:32;9.10;99.90
57434;DHT22;43277;52.672;6.984;2022-09-27T04:25:58;9.10;99.90
57434;DHT22;43277;52.672;6.984;2022-09-27T04:28:24;9.10;99.90
57434;DHT22;43277;52.672;6.984;2022-09-27T04:30:50;9.10;99.90
57434;DHT22;43277;52.672;6.984;2022-09-27T04:33:15;9.10;99.90
57434;DHT22;43277;52.672;6.984;2022-09-27T04:35:42;9.10;99.90
57434;DHT22;43277;52.672;6.984;2022-09-27T04:38:26;9.10;99.90
57434;DHT22;43277;52.672;6.984;2022-09-27T04:40:52;9.00;99.90
57434;DHT22;43277;52.672;6.984;2022-09-27T04:43:18;9.00;99.90
57434;DHT22;43277;52.672;6.984;2022-09-27T04:45:43;8.90;99.90
57434;DHT22;43277;52.672;6.984;2022-09-27T04:48:09;9.00;99.90
57434;DHT22;43277;52.672;6.984;2022-09-27T04:50:35;9.00;99.90
57434;DHT22;43277;52.672;6.984;2022-09-27T04:53:00;9.00;99.90
57434;DHT22;43277;52.672;6.984;2022-09-27T04:55:26;9.10;99.90
57434;DHT22;43277;52.672;6.984;2022-09-27T04:57:53;9.00;99.90
57434;DHT22;43277;52.672;6.984;2022-09-27T05:00:18;9.00;99.90
57434;DHT22;43277;52.672;6.984;2022-09-27T05:02:45;9.00;99.90
57434;DHT22;43277;52.672;6.984;2022-09-27T05:05:13;9.00;99.90
57434;DHT22;43277;52.672;6.984;2022-09-27T05:07:38;9.00;99.90
57434;DHT22;43277;52.672;6.984;2022-09-27T05:10:05;9.00;99.90
57434;DHT22;43277;52.672;6.984;2022-09-27T05:12:31;8.90;99.90
57434;DHT22;43277;52.672;6.984;2022-09-27T05:14:57;9.00;99.90
57434;DHT22;43277;52.672;6.984;2022-09-27T05:17:22;9.00;99.90
57434;DHT22;43277;52.672;6.984;2022-09-27T05:19:49;8.90;99.90
57434;DHT22;43277;52.672;6.984;2022-09-27T05:22:14;8.90;99.90
57434;DHT22;43277;52.672;6.984;2022-09-27T05:24:40;9.00;99.90
57434;DHT22;43277;52.672;6.984;2022-09-27T05:27:07;9.00;99.90
57434;DHT22;43277;52.672;6.984;2022-09-27T05:29:34;9.00;99.90
57434;DHT22;43277;52.672;6.984;2022-09-27T05:32:01;9.00;99.90
57434;DHT22;43277;52.672;6.984;2022-09-27T05:34:26;9.00;99.90
57434;DHT22;43277;52.672;6.984;2022-09-27T05:36:52;9.10;99.90
57434;DHT22;43277;52.672;6.984;2022-09-27T05:39:17;9.10;99.90
57434;DHT22;43277;52.672;6.984;2022-09-27T05:41:44;9.10;99.90
57434;DHT22;43277;52.672;6.984;2022-09-27T05:44:10;9.20;99.90
57434;DHT22;43277;52.672;6.984;2022-09-27T05:46:37;9.10;99.90
57434;DHT22;43277;52.672;6.984;2022-09-27T05:49:04;9.10;99.90
57434;DHT22;43277;52.672;6.984;2022-09-27T05:51:29;9.10;99.90
57434;DHT22;43277;52.672;6.984;2022-09-27T05:53:55;9.10;99.90
57434;DHT22;43277;52.672;6.984;2022-09-27T05:56:21;9.20;99.90
57434;DHT22;43277;52.672;6.984;2022-09-27T05:58:46;9.10;99.90
57434;DHT22;43277;52.672;6.984;2022-09-27T06:01:12;9.20;99.90
57434;DHT22;43277;52.672;6.984;2022-09-27T06:03:37;9.20;99.90
57434;DHT22;43277;52.672;6.984;2022-09-27T06:06:05;9.20;99.90
57434;DHT22;43277;52.672;6.984;2022-09-27T06:08:36;9.20;99.90
57434;DHT22;43277;52.672;6.984;2022-09-27T06:11:07;9.20;99.90
57434;DHT22;43277;52.672;6.984;2022-09-27T06:13:33;9.20;99.90
57434;DHT22;43277;52.672;6.984;2022-09-27T06:16:01;9.10;99.90
57434;DHT22;43277;52.672;6.984;2022-09-27T06:18:27;9.00;99.90
57434;DHT22;43277;52.672;6.984;2022-09-27T06:20:53;9.10;99.90
57434;DHT22;43277;52.672;6.984;2022-09-27T06:23:20;9.10;99.90
57434;DHT22;43277;52.672;6.984;2022-09-27T06:25:50;9.20;99.90
57434;DHT22;43277;52.672;6.984;2022-09-27T06:28:17;9.30;99.90
57434;DHT22;43277;52.672;6.984;2022-09-27T06:30:44;9.20;99.90
57434;DHT22;43277;52.672;6.984;2022-09-27T06:33:12;9.10;99.90
57434;DHT22;43277;52.672;6.984;2022-09-27T06:35:39;9.10;99.90
57434;DHT22;43277;52.672;6.984;2022-09-27T06:38:06;9.20;99.90
57434;DHT22;43277;52.672;6.984;2022-09-27T06:40:34;9.20;99.90
57434;DHT22;43277;52.672;6.984;2022-09-27T06:43:07;9.30;99.90
57434;DHT22;43277;52.672;6.984;2022-09-27T06:45:34;9.30;99.90
57434;DHT22;43277;52.672;6.984;2022-09-27T06:48:00;9.30;99.90
57434;DHT22;43277;52.672;6.984;2022-09-27T06:50:31;9.30;99.90
57434;DHT22;43277;52.672;6.984;2022-09-27T06:52:58;9.30;99.90
57434;DHT22;43277;52.672;6.984;2022-09-27T06:55:23;9.40;99.90
57434;DHT22;43277;52.672;6.984;2022-09-27T06:57:54;9.40;99.90
57434;DHT22;43277;52.672;6.984;2022-09-27T07:00:37;9.50;99.90
57434;DHT22;43277;52.672;6.984;2022-09-27T07:03:03;9.60;99.90
57434;DHT22;43277;52.672;6.984;2022-09-27T07:05:30;9.60;99.90
57434;DHT22;43277;52.672;6.984;2022-09-27T07:07:56;9.70;99.90
57434;DHT22;43277;52.672;6.984;2022-09-27T07:10:27;9.80;99.90
57434;DHT22;43277;52.672;6.984;2022-09-27T07:12:54;9.90;99.90
57434;DHT22;43277;52.672;6.984;2022-09-27T07:15:20;9.90;99.90
57434;DHT22;43277;52.672;6.984;2022-09-27T07:17:56;10.00;99.90
57434;DHT22;43277;52.672;6.984;2022-09-27T07:20:23;10.00;99.90
57434;DHT22;43277;52.672;6.984;2022-09-27T07:22:48;10.00;99.90
57434;DHT22;43277;52.672;6.984;2022-09-27T07:25:14;10.10;99.90
57434;DHT22;43277;52.672;6.984;2022-09-27T07:27:40;10.20;99.90
57434;DHT22;43277;52.672;6.984;2022-09-27T07:30:07;10.20;99.90
57434;DHT22;43277;52.672;6.984;2022-09-27T07:32:33;10.10;99.90
57434;DHT22;43277;52.672;6.984;2022-09-27T07:35:02;10.20;99.90
57434;DHT22;43277;52.672;6.984;2022-09-27T07:37:31;10.30;99.90
57434;DHT22;43277;52.672;6.984;2022-09-27T07:39:58;10.30;99.90
57434;DHT22;43277;52.672;6.984;2022-09-27T07:42:24;10.50;99.90
57434;DHT22;43277;52.672;6.984;2022-09-27T07:44:50;10.60;99.90
57434;DHT22;43277;52.672;6.984;2022-09-27T07:47:15;10.50;99.90
57434;DHT22;43277;52.672;6.984;2022-09-27T07:49:43;10.60;99.90
57434;DHT22;43277;52.672;6.984;2022-09-27T07:52:09;10.60;99.90
57434;DHT22;43277;52.672;6.984;2022-09-27T07:54:34;10.70;99.90
57434;DHT22;43277;52.672;6.984;2022-09-27T07:57:01;10.60;99.90
57434;DHT22;43277;52.672;6.984;2022-09-27T07:59:27;10.60;99.90
57434;DHT22;43277;52.672;6.984;2022-09-27T08:01:53;10.70;99.90
57434;DHT22;43277;52.672;6.984;2022-09-27T08:04:20;10.70;99.90
57434;DHT22;43277;52.672;6.984;2022-09-27T08:06:46;10.70;99.90
57434;DHT22;43277;52.672;6.984;2022-09-27T08:09:12;10.80;99.90
57434;DHT22;43277;52.672;6.984;2022-09-27T08:11:37;10.90;99.90
57434;DHT22;43277;52.672;6.984;2022-09-27T08:14:03;11.00;99.90
57434;DHT22;43277;52.672;6.984;2022-09-27T08:16:31;11.10;99.90
57434;DHT22;43277;52.672;6.984;2022-09-27T08:18:57;11.40;99.90
57434;DHT22;43277;52.672;6.984;2022-09-27T08:21:23;11.40;99.90
57434;DHT22;43277;52.672;6.984;2022-09-27T08:23:48;11.30;99.90
57434;DHT22;43277;52.672;6.984;2022-09-27T08:26:14;11.40;99.90
57434;DHT22;43277;52.672;6.984;2022-09-27T08:28:39;11.30;99.90
57434;DHT22;43277;52.672;6.984;2022-09-27T08:31:05;11.30;99.90
57434;DHT22;43277;52.672;6.984;2022-09-27T08:33:31;11.30;99.90
57434;DHT22;43277;52.672;6.984;2022-09-27T08:35:56;11.10;99.90
57434;DHT22;43277;52.672;6.984;2022-09-27T08:38:22;11.20;99.90
57434;DHT22;43277;52.672;6.984;2022-09-27T08:40:54;11.10;99.90
57434;DHT22;43277;52.672;6.984;2022-09-27T08:43:44;11.20;99.90
57434;DHT22;43277;52.672;6.984;2022-09-27T08:48:38;11.10;99.90
57434;DHT22;43277;52.672;6.984;2022-09-27T08:51:06;11.20;99.90
57434;DHT22;43277;52.672;6.984;2022-09-27T08:53:52;11.30;99.90
57434;DHT22;43277;52.672;6.984;2022-09-27T08:56:19;11.30;99.90
57434;DHT22;43277;52.672;6.984;2022-09-27T08:58:53;11.20;99.90
57434;DHT22;43277;52.672;6.984;2022-09-27T09:01:20;11.30;99.90
57434;DHT22;43277;52.672;6.984;2022-09-27T09:03:52;11.40;99.90
57434;DHT22;43277;52.672;6.984;2022-09-27T09:06:32;11.50;99.90
57434;DHT22;43277;52.672;6.984;2022-09-27T09:15:00;12.10;99.90
57434;DHT22;43277;52.672;6.984;2022-09-27T09:25:45;12.50;99.90
57434;DHT22;43277;52.672;6.984;2022-09-27T09:31:18;12.20;99.90
57434;DHT22;43277;52.672;6.984;2022-09-27T09:33:51;12.20;99.90
57434;DHT22;43277;52.672;6.984;2022-09-27T09:39:01;12.10;99.90
57434;DHT22;43277;52.672;6.984;2022-09-27T09:41:42;12.00;99.90
57434;DHT22;43277;52.672;6.984;2022-09-27T09:44:22;11.60;99.90
57434;DHT22;43277;52.672;6.984;2022-09-27T09:46:51;11.10;99.90
57434;DHT22;43277;52.672;6.984;2022-09-27T09:49:30;10.80;99.90
57434;DHT22;43277;52.672;6.984;2022-09-27T09:52:10;10.70;99.90
57434;DHT22;43277;52.672;6.984;2022-09-27T09:54:42;10.60;99.90
57434;DHT22;43277;52.672;6.984;2022-09-27T09:57:14;10.60;99.90
57434;DHT22;43277;52.672;6.984;2022-09-27T10:00:02;10.60;99.90
57434;DHT22;43277;52.672;6.984;2022-09-27T10:02:35;10.60;99.90
57434;DHT22;43277;52.672;6.984;2022-09-27T10:05:04;10.60;99.90
57434;DHT22;43277;52.672;6.984;2022-09-27T10:07:30;10.60;99.90
57434;DHT22;43277;52.672;6.984;2022-09-27T10:09:59;10.60;99.90
57434;DHT22;43277;52.672;6.984;2022-09-27T10:12:26;10.70;99.90
57434;DHT22;43277;52.672;6.984;2022-09-27T10:14:54;10.80;99.90
57434;DHT22;43277;52.672;6.984;2022-09-27T10:17:24;10.80;99.90
57434;DHT22;43277;52.672;6.984;2022-09-27T10:19:55;10.90;99.90
57434;DHT22;43277;52.672;6.984;2022-09-27T10:22:32;11.00;99.90
57434;DHT22;43277;52.672;6.984;2022-09-27T10:25:04;11.10;99.90
57434;DHT22;43277;52.672;6.984;2022-09-27T10:27:44;11.20;99.90
57434;DHT22;43277;52.672;6.984;2022-09-27T10:30:35;11.30;99.90
57434;DHT22;43277;52.672;6.984;2022-09-27T10:33:15;11.40;99.90
57434;DHT22;43277;52.672;6.984;2022-09-27T10:35:42;11.50;99.90
57434;DHT22;43277;52.672;6.984;2022-09-27T10:40:45;11.80;99.90
57434;DHT22;43277;52.672;6.984;2022-09-27T10:45:59;12.10;99.90
57434;DHT22;43277;52.672;6.984;2022-09-27T10:48:27;12.20;99.90
57434;DHT22;43277;52.672;6.984;2022-09-27T10:51:20;12.40;99.90
57434;DHT22;43277;52.672;6.984;2022-09-27T10:53:47;12.50;99.90
57434;DHT22;43277;52.672;6.984;2022-09-27T10:56:25;12.70;99.90
57434;DHT22;43277;52.672;6.984;2022-09-27T10:58:52;12.80;99.90
57434;DHT22;43277;52.672;6.984;2022-09-27T11:01:19;13.00;99.90
57434;DHT22;43277;52.672;6.984;2022-09-27T11:03:49;13.00;99.90
57434;DHT22;43277;52.672;6.984;2022-09-27T11:06:33;13.10;99.90
57434;DHT22;43277;52.672;6.984;2022-09-27T11:09:18;13.30;99.90
57434;DHT22;43277;52.672;6.984;2022-09-27T11:11:44;13.40;99.90
57434;DHT22;43277;52.672;6.984;2022-09-27T11:14:18;13.60;99.90
57434;DHT22;43277;52.672;6.984;2022-09-27T11:17:00;13.70;99.90
57434;DHT22;43277;52.672;6.984;2022-09-27T11:22:25;14.10;99.90
57434;DHT22;43277;52.672;6.984;2022-09-27T11:30:42;14.60;99.90
57434;DHT22;43277;52.672;6.984;2022-09-27T11:35:58;14.50;99.90
57434;DHT22;43277;52.672;6.984;2022-09-27T11:38:31;14.60;99.90
57434;DHT22;43277;52.672;6.984;2022-09-27T11:46:40;14.70;99.90
57434;DHT22;43277;52.672;6.984;2022-09-27T11:52:07;14.60;99.90
57434;DHT22;43277;52.672;6.984;2022-09-27T12:00:24;14.00;99.90
57434;DHT22;43277;52.672;6.984;2022-09-27T12:05:54;13.40;99.90
57434;DHT22;43277;52.672;6.984;2022-09-27T12:10:50;12.60;99.90
57434;DHT22;43277;52.672;6.984;2022-09-27T12:13:33;12.40;99.90
57434;DHT22;43277;52.672;6.984;2022-09-27T12:16:01;12.30;99.90
57434;DHT22;43277;52.672;6.984;2022-09-27T12:18:30;12.30;99.90
57434;DHT22;43277;52.672;6.984;2022-09-27T12:21:01;12.50;99.90
57434;DHT22;43277;52.672;6.984;2022-09-27T12:23:46;12.60;99.90
57434;DHT22;43277;52.672;6.984;2022-09-27T12:26:17;12.80;99.90
57434;DHT22;43277;52.672;6.984;2022-09-27T12:29:22;12.90;99.90
57434;DHT22;43277;52.672;6.984;2022-09-27T12:40:20;12.80;99.90
57434;DHT22;43277;52.672;6.984;2022-09-27T12:42:54;12.90;99.90
57434;DHT22;43277;52.672;6.984;2022-09-27T12:48:19;12.80;99.90
57434;DHT22;43277;52.672;6.984;2022-09-27T12:51:07;12.90;99.90
57434;DHT22;43277;52.672;6.984;2022-09-27T12:53:53;13.00;99.90
57434;DHT22;43277;52.672;6.984;2022-09-27T12:59:11;13.10;99.90
57434;DHT22;43277;52.672;6.984;2022-09-27T13:12:33;13.00;99.90
57434;DHT22;43277;52.672;6.984;2022-09-27T13:17:56;13.10;99.90
57434;DHT22;43277;52.672;6.984;2022-09-27T13:22:53;13.50;99.90
57434;DHT22;43277;52.672;6.984;2022-09-27T13:31:01;14.60;99.90
57434;DHT22;43277;52.672;6.984;2022-09-27T13:33:47;14.80;99.90
57434;DHT22;43277;52.672;6.984;2022-09-27T13:51:54;13.90;99.90
57434;DHT22;43277;52.672;6.984;2022-09-27T13:54:38;14.00;99.90
57434;DHT22;43277;52.672;6.984;2022-09-27T13:57:06;14.20;99.90
57434;DHT22;43277;52.672;6.984;2022-09-27T13:59:53;14.40;99.90
57434;DHT22;43277;52.672;6.984;2022-09-27T14:02:31;14.60;99.90
57434;DHT22;43277;52.672;6.984;2022-09-27T14:05:01;14.40;99.90
57434;DHT22;43277;52.672;6.984;2022-09-27T14:07:35;14.10;99.90
57434;DHT22;43277;52.672;6.984;2022-09-27T14:10:04;13.90;99.90
57434;DHT22;43277;52.672;6.984;2022-09-27T14:12:34;13.80;99.90
57434;DHT22;43277;52.672;6.984;2022-09-27T14:15:03;13.70;99.90
57434;DHT22;43277;52.672;6.984;2022-09-27T14:17:29;13.50;99.90
57434;DHT22;43277;52.672;6.984;2022-09-27T14:19:55;13.40;99.90
57434;DHT22;43277;52.672;6.984;2022-09-27T14:22:22;13.20;99.90
57434;DHT22;43277;52.672;6.984;2022-09-27T14:24:50;13.00;99.90
57434;DHT22;43277;52.672;6.984;2022-09-27T14:27:27;13.20;99.90
57434;DHT22;43277;52.672;6.984;2022-09-27T14:30:09;13.10;99.90
57434;DHT22;43277;52.672;6.984;2022-09-27T14:32:49;13.20;99.90
57434;DHT22;43277;52.672;6.984;2022-09-27T14:35:16;13.30;99.90
57434;DHT22;43277;52.672;6.984;2022-09-27T14:38:08;13.50;99.90
57434;DHT22;43277;52.672;6.984;2022-09-27T14:40:41;13.50;99.90
57434;DHT22;43277;52.672;6.984;2022-09-27T14:43:17;13.40;99.90
57434;DHT22;43277;52.672;6.984;2022-09-27T14:45:43;13.20;99.90
57434;DHT22;43277;52.672;6.984;2022-09-27T14:48:32;13.00;99.90
57434;DHT22;43277;52.672;6.984;2022-09-27T14:51:03;12.90;99.90
57434;DHT22;43277;52.672;6.984;2022-09-27T14:53:35;12.70;99.90
57434;DHT22;43277;52.672;6.984;2022-09-27T14:56:02;12.70;99.90
57434;DHT22;43277;52.672;6.984;2022-09-27T14:58:28;12.50;99.90
57434;DHT22;43277;52.672;6.984;2022-09-27T15:00:55;12.50;99.90
57434;DHT22;43277;52.672;6.984;2022-09-27T15:03:31;12.50;99.90
57434;DHT22;43277;52.672;6.984;2022-09-27T15:05:58;12.40;99.90
57434;DHT22;43277;52.672;6.984;2022-09-27T15:08:28;12.30;99.90
57434;DHT22;43277;52.672;6.984;2022-09-27T15:11:03;12.30;99.90
57434;DHT22;43277;52.672;6.984;2022-09-27T15:13:33;12.30;99.90
57434;DHT22;43277;52.672;6.984;2022-09-27T15:15:59;12.30;99.90
57434;DHT22;43277;52.672;6.984;2022-09-27T15:18:33;12.20;99.90
57434;DHT22;43277;52.672;6.984;2022-09-27T15:21:04;12.20;99.90
57434;DHT22;43277;52.672;6.984;2022-09-27T15:23:39;12.10;99.90
57434;DHT22;43277;52.672;6.984;2022-09-27T15:28:35;12.20;99.90
57434;DHT22;43277;52.672;6.984;2022-09-27T15:31:03;12.30;99.90
57434;DHT22;43277;52.672;6.984;2022-09-27T15:33:30;12.30;99.90
57434;DHT22;43277;52.672;6.984;2022-09-27T15:36:00;12.20;99.90
57434;DHT22;43277;52.672;6.984;2022-09-27T15:38:33;12.20;99.90
57434;DHT22;43277;52.672;6.984;2022-09-27T15:43:56;12.10;99.90
57434;DHT22;43277;52.672;6.984;2022-09-27T15:46:37;12.20;99.90
57434;DHT22;43277;52.672;6.984;2022-09-27T15:51:46;12.00;99.90
57434;DHT22;43277;52.672;6.984;2022-09-27T15:54:12;12.10;99.90
57434;DHT22;43277;52.672;6.984;2022-09-27T15:56:38;12.00;99.90
57434;DHT22;43277;52.672;6.984;2022-09-27T15:59:05;12.00;99.90
57434;DHT22;43277;52.672;6.984;2022-09-27T16:01:32;11.90;99.90
57434;DHT22;43277;52.672;6.984;2022-09-27T16:03:58;11.90;99.90
57434;DHT22;43277;52.672;6.984;2022-09-27T16:06:26;11.80;99.90
57434;DHT22;43277;52.672;6.984;2022-09-27T16:08:52;11.80;99.90
57434;DHT22;43277;52.672;6.984;2022-09-27T16:11:18;11.80;99.90
57434;DHT22;43277;52.672;6.984;2022-09-27T16:13:43;11.70;99.90
57434;DHT22;43277;52.672;6.984;2022-09-27T16:16:17;11.70;99.90
57434;DHT22;43277;52.672;6.984;2022-09-27T16:18:44;11.70;99.90
57434;DHT22;43277;52.672;6.984;2022-09-27T16:21:09;11.60;99.90
57434;DHT22;43277;52.672;6.984;2022-09-27T16:23:35;11.60;99.90
57434;DHT22;43277;52.672;6.984;2022-09-27T16:26:01;11.50;99.90
57434;DHT22;43277;52.672;6.984;2022-09-27T16:28:27;11.50;99.90
57434;DHT22;43277;52.672;6.984;2022-09-27T16:30:52;11.50;99.90
57434;DHT22;43277;52.672;6.984;2022-09-27T16:33:18;11.50;99.90
57434;DHT22;43277;52.672;6.984;2022-09-27T16:35:44;11.40;99.90
57434;DHT22;43277;52.672;6.984;2022-09-27T16:38:09;11.40;99.90
57434;DHT22;43277;52.672;6.984;2022-09-27T16:40:36;11.40;99.90
57434;DHT22;43277;52.672;6.984;2022-09-27T16:43:02;11.40;99.90
57434;DHT22;43277;52.672;6.984;2022-09-27T16:45:32;11.40;99.90
57434;DHT22;43277;52.672;6.984;2022-09-27T16:48:01;11.30;99.90
57434;DHT22;43277;52.672;6.984;2022-09-27T16:50:26;11.30;99.90
57434;DHT22;43277;52.672;6.984;2022-09-27T16:53:11;11.30;99.90
57434;DHT22;43277;52.672;6.984;2022-09-27T16:55:38;11.10;99.90
57434;DHT22;43277;52.672;6.984;2022-09-27T16:58:04;11.00;99.90
57434;DHT22;43277;52.672;6.984;2022-09-27T17:00:31;11.10;99.90
57434;DHT22;43277;52.672;6.984;2022-09-27T17:02:58;10.90;99.90
57434;DHT22;43277;52.672;6.984;2022-09-27T17:05:24;11.00;99.90
57434;DHT22;43277;52.672;6.984;2022-09-27T17:07:53;11.00;99.90
57434;DHT22;43277;52.672;6.984;2022-09-27T17:10:20;11.00;99.90
57434;DHT22;43277;52.672;6.984;2022-09-27T17:12:46;10.90;99.90
57434;DHT22;43277;52.672;6.984;2022-09-27T17:15:13;10.80;99.90
57434;DHT22;43277;52.672;6.984;2022-09-27T17:17:39;10.80;99.90
57434;DHT22;43277;52.672;6.984;2022-09-27T17:20:05;10.80;99.90
57434;DHT22;43277;52.672;6.984;2022-09-27T17:22:31;10.70;99.90
57434;DHT22;43277;52.672;6.984;2022-09-27T17:24:56;10.70;99.90
57434;DHT22;43277;52.672;6.984;2022-09-27T17:27:23;10.60;99.90
57434;DHT22;43277;52.672;6.984;2022-09-27T17:29:51;10.60;99.90
57434;DHT22;43277;52.672;6.984;2022-09-27T17:32:17;10.60;99.90
57434;DHT22;43277;52.672;6.984;2022-09-27T17:34:49;10.50;99.90
57434;DHT22;43277;52.672;6.984;2022-09-27T17:37:15;10.50;99.90
57434;DHT22;43277;52.672;6.984;2022-09-27T17:39:41;10.50;99.90
57434;DHT22;43277;52.672;6.984;2022-09-27T17:42:06;10.40;99.90
57434;DHT22;43277;52.672;6.984;2022-09-27T17:44:32;10.40;99.90
57434;DHT22;43277;52.672;6.984;2022-09-27T17:46:58;10.40;99.90
57434;DHT22;43277;52.672;6.984;2022-09-27T17:49:42;10.30;99.90
57434;DHT22;43277;52.672;6.984;2022-09-27T17:52:26;10.30;99.90
57434;DHT22;43277;52.672;6.984;2022-09-27T17:54:55;10.20;99.90
57434;DHT22;43277;52.672;6.984;2022-09-27T17:57:22;10.30;99.90
57434;DHT22;43277;52.672;6.984;2022-09-27T17:59:48;10.20;99.90
57434;DHT22;43277;52.672;6.984;2022-09-27T18:02:14;10.20;99.90
57434;DHT22;43277;52.672;6.984;2022-09-27T18:04:39;10.10;99.90
57434;DHT22;43277;52.672;6.984;2022-09-27T18:07:05;10.10;99.90
57434;DHT22;43277;52.672;6.984;2022-09-27T18:09:30;10.10;99.90
57434;DHT22;43277;52.672;6.984;2022-09-27T18:11:56;10.00;99.90
57434;DHT22;43277;52.672;6.984;2022-09-27T18:14:25;10.00;99.90
57434;DHT22;43277;52.672;6.984;2022-09-27T18:16:54;10.00;99.90
57434;DHT22;43277;52.672;6.984;2022-09-27T18:19:21;9.90;99.90